Time;durP1;ratioP1;P1;durP2;ratioP2;P2;SDS_P1;SDS_P2;PMS_P1;PMS_P2;Temp;Humidity;BMP_temperature;BMP_pressure;BME280_temperature;BME280_humidity;BME280_pressure;Samples;Min_cycle;Max_cycle;Signal;HPM_P1;HPM_P2
2022/01/18 00:01:15;;;;;;;2.92;2.30;;;;;;;0.66;100.00;90871.25;5072196;28;20778;-65
2022/01/18 00:03:41;;;;;;;2.95;2.30;;;;;;;0.70;100.00;90868.91;5072174;28;20028;-64
2022/01/18 00:06:07;;;;;;;2.30;2.10;;;;;;;0.55;100.00;90848.66;5071277;28;20084;-65
2022/01/18 00:08:33;;;;;;;2.97;2.00;;;;;;;0.67;100.00;90872.84;5071778;28;20112;-64
2022/01/18 00:10:58;;;;;;;2.65;2.03;;;;;;;0.74;100.00;90883.88;5071766;28;20021;-64
2022/01/18 00:18:31;;;;;;;3.00;2.17;;;;;;;0.53;100.00;90895.22;5071940;28;20186;-65
2022/01/18 00:23:26;;;;;;;3.75;2.50;;;;;;;0.53;100.00;90903.06;5071476;28;20467;-65
2022/01/18 00:25:55;;;;;;;3.40;2.50;;;;;;;0.54;100.00;90917.75;5071534;28;20032;-65
2022/01/18 00:28:24;;;;;;;2.40;2.20;;;;;;;0.40;100.00;90919.16;5071474;28;20021;-65
2022/01/18 00:36:20;;;;;;;2.92;2.40;;;;;;;0.37;100.00;90914.44;5071478;28;20464;-65
2022/01/18 00:38:47;;;;;;;2.38;2.17;;;;;;;0.27;100.00;90921.13;5071374;28;20078;-65
2022/01/18 00:41:15;;;;;;;2.47;2.22;;;;;;;0.30;100.00;90912.78;5071255;28;20031;-65
2022/01/18 00:43:42;;;;;;;2.00;1.80;;;;;;;0.28;100.00;90906.22;5071325;28;20077;-65
2022/01/18 00:46:07;;;;;;;2.53;2.30;;;;;;;0.30;100.00;90893.69;5071305;28;20029;-65
2022/01/18 00:48:35;;;;;;;5.05;2.25;;;;;;;0.35;100.00;90900.81;5071255;28;20025;-65
2022/01/18 00:51:03;;;;;;;6.22;2.45;;;;;;;0.37;100.00;90902.16;5071219;28;20119;-65
2022/01/18 00:53:35;;;;;;;3.10;2.47;;;;;;;0.39;100.00;90894.03;5071149;28;20050;-65
2022/01/18 00:58:33;;;;;;;2.45;2.20;;;;;;;0.44;100.00;90899.31;5071178;28;20409;-65
2022/01/18 01:00:58;;;;;;;2.20;2.00;;;;;;;0.42;100.00;90896.16;5070981;28;20460;-64
2022/01/18 01:03:24;;;;;;;3.42;2.13;;;;;;;0.55;100.00;90893.94;5071022;28;20032;-64
2022/01/18 01:05:50;;;;;;;2.08;1.85;;;;;;;0.48;100.00;90887.34;5070978;28;20090;-64
2022/01/18 01:08:15;;;;;;;2.55;2.30;;;;;;;0.46;100.00;90889.38;5071130;28;20089;-64
2022/01/18 01:10:41;;;;;;;3.38;2.20;;;;;;;0.50;100.00;90906.97;5071072;28;20502;-64
2022/01/18 01:13:08;;;;;;;3.72;2.75;;;;;;;0.50;100.00;90909.59;5070939;28;20104;-64
2022/01/18 01:15:43;;;;;;;2.25;2.05;;;;;;;0.46;100.00;90920.78;5070942;28;20515;-64
2022/01/18 01:45:07;;;;;;;3.00;2.70;;;;;;;0.36;100.00;90949.50;5074663;28;20072;-64
2022/01/18 01:47:35;;;;;;;3.00;2.47;;;;;;;0.36;100.00;90963.38;5056608;28;20036;-64
2022/01/18 01:50:07;;;;;;;3.70;2.70;;;;;;;0.36;100.00;90959.97;5074459;28;20058;-64
2022/01/18 01:52:33;;;;;;;4.57;2.40;;;;;;;0.28;100.00;90977.66;5074386;28;20485;-64
2022/01/18 01:54:58;;;;;;;2.80;2.30;;;;;;;0.17;100.00;90969.97;5074382;28;20162;-64
2022/01/18 01:57:24;;;;;;;4.25;3.22;;;;;;;0.13;100.00;90961.00;5074364;28;20099;-64
2022/01/18 01:59:50;;;;;;;3.20;2.33;;;;;;;0.05;100.00;90970.09;5074322;28;20044;-64
2022/01/18 02:02:16;;;;;;;4.15;3.13;;;;;;;0.01;100.00;90982.09;5074115;28;20040;-64
2022/01/18 02:04:41;;;;;;;3.58;2.45;;;;;;;-0.03;100.00;90996.66;5073998;28;20045;-65
2022/01/18 02:07:07;;;;;;;2.95;2.28;;;;;;;-0.05;100.00;91009.19;5074205;28;20020;-64
2022/01/18 02:09:33;;;;;;;5.10;2.00;;;;;;;-0.03;100.00;91025.41;5074127;28;20024;-65
2022/01/18 02:12:00;;;;;;;3.97;3.00;;;;;;;-0.10;100.00;91040.50;5074046;28;20078;-65
2022/01/18 02:14:29;;;;;;;2.38;2.17;;;;;;;-0.22;100.00;91026.75;5073989;28;20028;-65
2022/01/18 02:22:24;;;;;;;2.60;2.10;;;;;;;-0.47;100.00;91042.88;5073759;28;20035;-65
2022/01/18 02:24:50;;;;;;;2.55;2.20;;;;;;;-0.53;100.00;91043.81;5073893;28;20033;-65
2022/01/18 02:27:16;;;;;;;2.40;1.90;;;;;;;-0.61;100.00;91045.03;5073734;28;20051;-65
2022/01/18 02:29:42;;;;;;;2.42;1.80;;;;;;;-0.63;100.00;91044.47;5073402;28;20112;-65
2022/01/18 02:32:08;;;;;;;2.75;1.85;;;;;;;-0.75;100.00;91035.91;5073655;28;20032;-65
2022/01/18 02:34:34;;;;;;;1.92;1.70;;;;;;;-0.82;100.00;91056.94;5073742;28;20035;-65
2022/01/18 02:37:03;;;;;;;4.20;1.98;;;;;;;-0.92;100.00;91068.03;5073646;28;20037;-65
2022/01/18 02:39:29;;;;;;;1.83;1.70;;;;;;;-0.93;97.76;91070.91;5073858;28;20028;-65
2022/01/18 02:41:58;;;;;;;3.03;2.00;;;;;;;-0.89;95.26;91072.00;5073404;28;20120;-65
2022/01/18 02:44:25;;;;;;;4.85;1.88;;;;;;;-0.93;95.76;91066.47;5055500;28;20399;-65
2022/01/18 02:46:51;;;;;;;1.70;1.60;;;;;;;-1.01;93.98;91059.00;5073681;28;20059;-65
2022/01/18 02:49:17;;;;;;;1.63;1.48;;;;;;;-1.04;92.39;91054.25;5073480;28;20490;-64
2022/01/18 02:51:43;;;;;;;4.20;2.60;;;;;;;-1.12;90.71;91046.78;5073351;28;20032;-64
2022/01/18 02:54:13;;;;;;;2.65;1.65;;;;;;;-1.19;89.35;91053.19;5073244;28;20044;-64
2022/01/18 02:56:49;;;;;;;2.00;1.50;;;;;;;-1.40;86.16;91065.91;5073262;28;20074;-64
2022/01/18 02:59:25;;;;;;;2.20;1.67;;;;;;;-1.53;84.91;91080.00;5073236;28;20111;-64
2022/01/18 03:04:42;;;;;;;3.80;1.50;;;;;;;-1.83;86.61;91105.50;5221395;22;20017;-64
2022/01/18 03:07:09;;;;;;;1.90;1.70;;;;;;;-1.86;83.90;91111.16;5053329;28;20037;-63
2022/01/18 03:09:35;;;;;;;2.10;1.50;;;;;;;-2.11;83.00;91096.56;5053047;28;20040;-63
2022/01/18 03:12:02;;;;;;;1.73;1.40;;;;;;;-2.02;81.93;91106.66;5052961;28;20182;-63
2022/01/18 03:14:27;;;;;;;1.90;1.60;;;;;;;-2.08;80.88;91112.75;5052815;28;20037;-64
2022/01/18 03:16:53;;;;;;;1.98;1.40;;;;;;;-2.13;81.73;91119.47;5052865;28;20040;-63
2022/01/18 03:19:18;;;;;;;7.22;1.75;;;;;;;-2.14;81.21;91123.09;5052814;28;20744;-63
2022/01/18 03:21:44;;;;;;;2.85;1.48;;;;;;;-2.28;81.48;91137.38;5068087;28;20059;-63
2022/01/18 03:29:29;;;;;;;2.17;1.67;;;;;;;-2.50;82.07;91185.81;5052799;28;20517;-63
2022/01/18 03:31:55;;;;;;;1.60;1.40;;;;;;;-2.64;81.48;91197.47;5052532;28;20040;-63
2022/01/18 03:34:20;;;;;;;1.50;1.40;;;;;;;-2.70;81.22;91188.72;5052340;28;20483;-63
2022/01/18 03:36:46;;;;;;;2.05;1.75;;;;;;;-2.66;79.35;91191.69;5052395;28;20039;-63
2022/01/18 03:39:12;;;;;;;2.30;1.40;;;;;;;-2.82;78.97;91199.09;5052317;28;20025;-63
2022/01/18 03:41:38;;;;;;;1.65;1.30;;;;;;;-2.84;77.76;91195.94;5051447;28;20025;-63
2022/01/18 03:44:04;;;;;;;4.20;1.65;;;;;;;-2.87;77.74;91198.97;5052244;28;20094;-64
2022/01/18 03:46:31;;;;;;;2.15;1.30;;;;;;;-2.91;77.53;91203.03;5052084;28;20422;-64
2022/01/18 03:48:58;;;;;;;2.95;1.20;;;;;;;-2.99;77.44;91203.34;5052396;28;20033;-64
2022/01/18 03:51:23;;;;;;;1.95;1.40;;;;;;;-3.05;77.22;91210.22;5052144;28;20115;-64
2022/01/18 03:53:51;;;;;;;1.48;1.30;;;;;;;-3.21;78.43;91197.00;5052067;28;20528;-63
2022/01/18 03:56:17;;;;;;;2.85;1.50;;;;;;;-3.23;78.72;91206.84;5067145;28;20029;-63
2022/01/18 03:58:43;;;;;;;1.52;1.20;;;;;;;-3.30;77.69;91221.75;5052003;28;20049;-63
2022/01/18 04:01:08;;;;;;;2.40;1.30;;;;;;;-3.28;76.10;91222.34;5051854;28;20505;-63
2022/01/18 04:03:34;;;;;;;1.50;1.40;;;;;;;-3.30;76.40;91213.97;5051912;28;20040;-63
2022/01/18 04:05:59;;;;;;;4.13;1.67;;;;;;;-3.43;77.17;91218.28;5051580;28;20075;-63
2022/01/18 04:08:25;;;;;;;1.90;1.40;;;;;;;-3.44;76.17;91214.09;5051763;28;20024;-63
2022/01/18 04:10:51;;;;;;;1.98;1.50;;;;;;;-3.39;75.18;91214.25;5051807;28;20078;-63
2022/01/18 04:13:17;;;;;;;3.97;2.53;;;;;;;-3.42;75.21;91238.09;5051687;28;20025;-63
2022/01/18 04:15:43;;;;;;;2.35;1.90;;;;;;;-3.54;74.55;91231.22;5050275;28;20025;-64
2022/01/18 04:18:30;;;;;;;2.05;1.35;;;;;;;-3.62;74.63;91230.50;5051306;28;20394;-64
2022/01/18 04:28:53;;;;;;;22.88;11.40;;;;;;;-3.71;75.05;91254.38;5051231;28;20029;-63
2022/01/18 04:31:18;;;;;;;5.53;4.43;;;;;;;-3.86;76.34;91280.72;5051372;28;20106;-64
2022/01/18 04:33:44;;;;;;;2.97;2.25;;;;;;;-3.84;76.73;91285.69;5066729;28;20036;-64
2022/01/18 04:36:10;;;;;;;7.70;3.33;;;;;;;-3.89;76.49;91295.94;5051144;28;20410;-63
2022/01/18 04:38:36;;;;;;;4.70;2.40;;;;;;;-3.96;77.13;91309.78;5051240;28;20039;-63
2022/01/18 04:41:09;;;;;;;4.22;1.67;;;;;;;-4.00;77.51;91332.00;5050624;28;20033;-63
2022/01/18 04:49:06;;;;;;;3.05;2.10;;;;;;;-3.90;74.81;91330.75;5048440;28;20083;-63
2022/01/18 04:51:31;;;;;;;3.85;2.53;;;;;;;-3.92;75.26;91323.97;5051135;28;20509;-63
2022/01/18 04:53:59;;;;;;;2.03;1.80;;;;;;;-3.96;75.18;91342.75;5050849;28;20100;-63
2022/01/18 04:59:08;;;;;;;2.13;1.80;;;;;;;-4.09;76.01;91342.88;5049353;28;20079;-63
2022/01/18 05:01:36;;;;;;;3.92;1.90;;;;;;;-4.15;76.26;91349.69;5050966;28;20025;-63
2022/01/18 05:04:02;;;;;;;1.75;1.50;;;;;;;-4.17;76.17;91350.91;5050806;28;20549;-64
2022/01/18 05:06:28;;;;;;;3.05;1.60;;;;;;;-4.13;76.36;91368.47;5050660;28;20140;-64
2022/01/18 05:08:54;;;;;;;2.83;1.90;;;;;;;-4.17;76.17;91356.13;5057322;28;20021;-63
2022/01/18 05:11:23;;;;;;;4.43;2.40;;;;;;;-4.16;76.79;91379.28;5060695;28;20033;-64
2022/01/18 05:24:02;;;;;;;4.32;1.80;;;;;;;-4.24;77.12;91356.16;5049528;28;20033;-65
2022/01/18 05:26:29;;;;;;;3.17;1.90;;;;;;;-4.25;76.85;91365.75;5049878;28;20027;-65
2022/01/18 05:28:57;;;;;;;2.47;1.88;;;;;;;-4.18;75.82;91360.50;5049935;28;20401;-64
2022/01/18 05:31:26;;;;;;;2.55;1.75;;;;;;;-4.21;76.73;91371.31;5055455;28;20020;-64
2022/01/18 05:33:53;;;;;;;3.03;1.60;;;;;;;-4.26;75.98;91358.16;5051813;28;20048;-64
2022/01/18 05:36:18;;;;;;;2.35;2.00;;;;;;;-4.17;76.25;91385.47;5049753;28;20021;-64
2022/01/18 05:38:44;;;;;;;2.45;1.80;;;;;;;-4.23;76.83;91384.53;5061886;28;20036;-64
2022/01/18 05:41:10;;;;;;;3.35;2.45;;;;;;;-4.27;76.87;91383.31;5070393;28;20032;-64
2022/01/18 05:43:37;;;;;;;2.47;1.70;;;;;;;-4.15;76.58;91387.88;5070251;28;20036;-64
2022/01/18 05:46:03;;;;;;;2.58;1.83;;;;;;;-4.07;75.57;91398.03;5070372;28;20033;-64
2022/01/18 05:48:28;;;;;;;4.50;3.10;;;;;;;-4.07;75.65;91414.41;5069861;28;20135;-63
2022/01/18 05:50:59;;;;;;;7.18;3.60;;;;;;;-4.15;76.29;91419.03;5070101;28;20115;-64
2022/01/18 05:53:25;;;;;;;11.05;5.50;;;;;;;-4.17;76.22;91410.66;5070505;28;20471;-63
2022/01/18 05:55:51;;;;;;;5.15;2.72;;;;;;;-4.14;76.68;91426.63;5049991;28;20028;-63
2022/01/18 05:58:16;;;;;;;9.05;4.10;;;;;;;-4.14;76.91;91428.44;5050034;28;20020;-63
2022/01/18 06:00:42;;;;;;;6.15;3.00;;;;;;;-4.20;77.51;91439.66;5049862;28;20028;-63
2022/01/18 06:03:14;;;;;;;21.50;11.25;;;;;;;-4.20;77.73;91439.66;5054838;28;20070;-63
2022/01/18 06:08:25;;;;;;;4.90;2.53;;;;;;;-4.18;77.92;91425.44;5056170;28;20555;-63
2022/01/18 06:10:51;;;;;;;6.82;3.38;;;;;;;-4.27;78.13;91430.09;5067575;28;20066;-63
2022/01/18 06:13:17;;;;;;;3.55;2.33;;;;;;;-4.19;77.52;91423.06;5073731;28;20021;-63
2022/01/18 06:15:43;;;;;;;5.70;3.13;;;;;;;-4.26;78.57;91417.88;5063926;28;20033;-65
2022/01/18 06:18:08;;;;;;;13.07;6.93;;;;;;;-4.22;78.51;91422.47;5053262;28;20036;-64
2022/01/18 06:20:34;;;;;;;3.85;2.95;;;;;;;-4.11;78.39;91421.00;5053400;28;20107;-65
2022/01/18 06:23:00;;;;;;;13.35;7.80;;;;;;;-4.14;78.48;91420.63;5053698;28;20029;-64
2022/01/18 06:25:26;;;;;;;12.15;7.82;;;;;;;-4.10;79.18;91419.19;5050649;28;20106;-66
2022/01/18 06:27:53;;;;;;;10.82;4.60;;;;;;;-4.11;79.03;91412.41;5060681;28;20025;-65
2022/01/18 06:30:19;;;;;;;14.55;6.22;;;;;;;-4.05;78.77;91433.19;5053312;28;20422;-64
2022/01/18 06:32:46;;;;;;;6.75;4.25;;;;;;;-4.05;79.11;91415.00;5052881;28;20024;-65
2022/01/18 06:35:13;;;;;;;6.00;3.55;;;;;;;-3.93;78.96;91428.13;5053167;28;20147;-64
2022/01/18 06:37:39;;;;;;;6.90;4.07;;;;;;;-3.84;79.09;91432.03;5052649;28;20040;-64
2022/01/18 06:40:07;;;;;;;41.92;14.52;;;;;;;-3.79;78.46;91421.81;5053169;28;20573;-64
2022/01/18 06:42:33;;;;;;;8.10;3.85;;;;;;;-3.64;77.24;91421.50;5052824;28;20025;-64
2022/01/18 06:44:59;;;;;;;5.05;3.42;;;;;;;-3.60;76.69;91421.91;5052980;28;20699;-61
2022/01/18 06:47:24;;;;;;;5.57;3.05;;;;;;;-3.70;77.92;91424.94;5052803;28;20028;-60
2022/01/18 06:49:50;;;;;;;5.90;4.57;;;;;;;-3.34;78.18;91434.66;5035248;28;20425;-62
2022/01/18 06:52:16;;;;;;;6.85;4.00;;;;;;;-3.29;76.11;91431.44;5053103;28;20033;-61
2022/01/18 06:54:41;;;;;;;4.05;2.50;;;;;;;-3.52;76.66;91442.41;5052985;28;20122;-64
2022/01/18 06:57:07;;;;;;;25.45;9.40;;;;;;;-3.55;77.06;91440.25;5053042;28;20481;-67
2022/01/18 06:59:34;;;;;;;6.03;3.47;;;;;;;-3.49;77.23;91453.19;5053108;28;20020;-66
2022/01/18 07:02:00;;;;;;;6.38;4.32;;;;;;;-3.46;76.89;91457.19;5052663;28;20043;-65
2022/01/18 07:04:26;;;;;;;14.40;8.38;;;;;;;-3.45;76.59;91453.59;5052329;28;20119;-66
2022/01/18 07:06:52;;;;;;;10.60;5.20;;;;;;;-3.32;76.29;91469.06;5058974;28;20492;-67
2022/01/18 07:09:22;;;;;;;11.85;5.15;;;;;;;-2.80;75.26;91451.41;5057522;28;20021;-67
2022/01/18 07:14:16;;;;;;;18.00;9.18;;;;;;;-1.17;68.82;91474.81;5108921;27;20113;-67
2022/01/18 07:16:41;;;;;;;26.13;11.98;;;;;;;1.27;62.53;91470.97;5107811;28;20024;-66
2022/01/18 07:19:07;;;;;;;43.80;17.27;;;;;;;2.39;56.63;91462.75;5109032;28;20111;-66
2022/01/18 07:21:32;;;;;;;30.58;13.82;;;;;;;2.37;55.46;91475.34;5108974;28;20096;-67
2022/01/18 07:24:04;;;;;;;18.30;8.93;;;;;;;4.67;51.27;91468.81;5107560;28;20115;-68
2022/01/18 07:26:31;;;;;;;6.93;4.05;;;;;;;2.69;52.38;91484.09;5108895;28;20100;-65
2022/01/18 07:28:57;;;;;;;6.20;5.10;;;;;;;2.42;53.55;91488.50;5108869;28;20073;-65
2022/01/18 07:31:23;;;;;;;4.93;3.80;;;;;;;4.84;49.09;91499.44;5108834;28;20165;-65
2022/01/18 07:33:48;;;;;;;4.78;2.90;;;;;;;6.92;45.59;91486.03;5108594;28;20497;-66
2022/01/18 07:36:14;;;;;;;11.13;6.35;;;;;;;6.17;44.85;91495.84;5107970;28;20036;-66
2022/01/18 07:38:39;;;;;;;12.60;7.60;;;;;;;6.04;45.37;91493.75;5108228;28;20032;-66
2022/01/18 07:41:05;;;;;;;7.47;5.90;;;;;;;5.83;45.18;91503.50;5108604;28;20058;-66
2022/01/18 07:43:31;;;;;;;4.10;3.30;;;;;;;6.66;43.98;91495.19;5108586;28;20036;-68
2022/01/18 07:45:56;;;;;;;5.07;3.10;;;;;;;6.49;43.80;91503.44;5107955;28;20035;-68
2022/01/18 07:48:23;;;;;;;4.68;3.20;;;;;;;7.20;42.70;91505.75;5107692;28;20028;-67
2022/01/18 07:50:51;;;;;;;8.77;3.15;;;;;;;6.80;42.33;91507.53;5108636;28;20120;-68
2022/01/18 07:53:18;;;;;;;8.10;5.45;;;;;;;6.07;43.68;91515.13;5107566;28;20042;-68
2022/01/18 07:55:43;;;;;;;6.07;3.75;;;;;;;3.94;47.14;91511.94;5107901;28;20063;-67
2022/01/18 07:58:09;;;;;;;9.45;3.67;;;;;;;2.50;50.54;91518.78;5107444;28;20070;-67
2022/01/18 08:00:35;;;;;;;8.88;4.90;;;;;;;5.49;46.10;91527.78;5107560;28;20040;-67
2022/01/18 08:03:01;;;;;;;6.72;3.28;;;;;;;7.70;41.24;91519.72;5107491;28;20032;-67
2022/01/18 08:05:27;;;;;;;5.30;3.50;;;;;;;9.11;39.51;91522.06;5107649;28;20478;-68
2022/01/18 08:07:52;;;;;;;6.13;3.30;;;;;;;9.93;37.05;91534.22;5107569;28;20027;-68
2022/01/18 08:10:18;;;;;;;6.38;4.78;;;;;;;10.99;37.18;91536.97;5106947;28;20036;-68
2022/01/18 08:12:45;;;;;;;5.05;3.67;;;;;;;11.82;33.93;91532.34;5107131;28;20052;-68
2022/01/18 08:15:15;;;;;;;8.50;4.00;;;;;;;11.45;34.15;91528.84;5103738;28;20047;-68
2022/01/18 08:17:43;;;;;;;5.18;3.28;;;;;;;9.73;35.69;91533.44;5103435;28;20040;-68
2022/01/18 08:20:13;;;;;;;5.43;3.70;;;;;;;9.71;36.90;91546.22;5104711;28;20455;-68
2022/01/18 08:22:42;;;;;;;5.05;3.78;;;;;;;11.77;34.08;91538.53;5105367;28;20099;-69
2022/01/18 08:25:08;;;;;;;6.97;4.63;;;;;;;9.98;35.86;91531.50;5094825;28;20465;-69
2022/01/18 08:27:34;;;;;;;7.30;4.40;;;;;;;10.03;36.14;91548.16;5091675;28;20108;-68
2022/01/18 08:30:00;;;;;;;6.10;4.07;;;;;;;7.07;39.72;91548.66;5093094;28;20044;-68
2022/01/18 08:32:25;;;;;;;13.77;7.55;;;;;;;7.17;40.57;91554.72;5092673;28;20578;-68
2022/01/18 08:34:51;;;;;;;7.70;4.50;;;;;;;7.81;38.70;91553.00;5093181;28;20040;-68
2022/01/18 08:37:17;;;;;;;5.38;4.03;;;;;;;7.15;40.64;91540.97;5092975;28;20036;-68
2022/01/18 08:39:43;;;;;;;4.35;3.08;;;;;;;6.85;40.71;91552.47;5092904;28;20032;-69
2022/01/18 08:42:08;;;;;;;4.72;2.90;;;;;;;6.69;41.30;91548.28;5092986;28;20161;-68
2022/01/18 08:44:35;;;;;;;3.63;2.63;;;;;;;6.87;41.06;91557.47;5093149;28;20093;-70
2022/01/18 08:47:00;;;;;;;4.78;3.28;;;;;;;6.74;41.41;91561.50;5092758;28;20462;-70
2022/01/18 08:49:26;;;;;;;6.25;4.15;;;;;;;6.15;41.94;91553.41;5092505;28;20115;-73
2022/01/18 08:51:52;;;;;;;46.58;24.08;;;;;;;8.29;40.10;91553.16;5085972;28;20042;-67
2022/01/18 08:54:18;;;;;;;17.90;9.05;;;;;;;8.67;38.32;91539.00;5080252;28;20409;-67
2022/01/18 08:56:47;;;;;;;4.47;3.55;;;;;;;9.29;36.22;91555.03;5092137;28;20024;-66
2022/01/18 08:59:12;;;;;;;4.40;3.28;;;;;;;8.83;37.07;91558.22;5090414;28;20042;-66
2022/01/18 09:01:38;;;;;;;19.00;9.90;;;;;;;7.58;39.46;91566.94;5091380;28;20390;-67
2022/01/18 09:04:04;;;;;;;9.52;5.30;;;;;;;7.44;39.75;91572.84;5091851;28;20076;-65
2022/01/18 09:06:31;;;;;;;3.03;2.47;;;;;;;7.54;39.37;91565.91;5091446;28;20040;-67
2022/01/18 09:08:57;;;;;;;4.20;3.30;;;;;;;7.37;38.32;91564.41;5088682;28;20117;-66
2022/01/18 09:11:24;;;;;;;2.22;2.03;;;;;;;7.62;38.63;91563.47;5084876;28;20096;-66
2022/01/18 09:13:53;;;;;;;6.28;4.07;;;;;;;10.02;35.22;91561.72;5091734;28;20479;-67
2022/01/18 09:16:19;;;;;;;3.17;2.35;;;;;;;8.53;38.40;91566.50;5093018;28;20032;-66
2022/01/18 09:18:46;;;;;;;4.53;2.25;;;;;;;7.78;38.86;91553.56;5093056;28;20071;-65
2022/01/18 09:21:11;;;;;;;3.47;2.75;;;;;;;7.09;40.13;91563.19;5092479;28;20044;-67
2022/01/18 09:23:39;;;;;;;3.13;2.83;;;;;;;8.01;38.53;91558.16;5092758;28;20044;-67
2022/01/18 09:26:06;;;;;;;3.80;2.90;;;;;;;8.56;38.00;91550.03;5092930;28;20031;-66
2022/01/18 09:28:32;;;;;;;4.10;2.22;;;;;;;7.66;38.30;91556.56;5090876;28;20089;-67
2022/01/18 09:30:58;;;;;;;2.70;2.38;;;;;;;7.88;38.71;91564.06;5085792;28;20131;-66
2022/01/18 09:33:23;;;;;;;2.63;2.13;;;;;;;8.90;37.77;91568.50;5088580;28;20071;-68
2022/01/18 09:35:49;;;;;;;4.40;3.40;;;;;;;8.53;37.56;91558.56;5087886;28;20409;-66
2022/01/18 09:38:14;;;;;;;3.80;2.22;;;;;;;9.14;37.30;91565.81;5091817;28;20077;-68
2022/01/18 09:40:45;;;;;;;2.53;2.20;;;;;;;9.08;36.30;91559.81;5089802;28;20051;-67
2022/01/18 09:43:13;;;;;;;3.63;2.83;;;;;;;8.18;37.96;91564.91;5090684;28;20511;-67
2022/01/18 09:45:41;;;;;;;15.25;7.25;;;;;;;9.13;36.59;91559.72;5091707;28;20024;-66
2022/01/18 09:48:08;;;;;;;3.15;2.85;;;;;;;7.95;37.60;91553.19;5092474;28;20035;-66
2022/01/18 09:50:36;;;;;;;7.03;3.85;;;;;;;8.93;37.09;91554.66;5091887;28;20508;-67
2022/01/18 09:53:04;;;;;;;7.85;4.68;;;;;;;10.19;35.32;91556.69;5092202;28;20035;-67
2022/01/18 09:55:31;;;;;;;4.00;2.97;;;;;;;8.85;37.24;91550.78;5092422;28;20092;-66
2022/01/18 09:57:58;;;;;;;3.83;2.58;;;;;;;8.18;37.74;91547.16;5092253;28;20046;-66
2022/01/18 10:00:26;;;;;;;4.13;2.63;;;;;;;9.18;36.82;91540.31;5092066;28;20028;-66
2022/01/18 10:02:52;;;;;;;4.05;3.08;;;;;;;8.78;37.95;91534.41;5091922;28;20036;-66
2022/01/18 10:05:27;;;;;;;4.68;3.63;;;;;;;10.09;36.74;91540.88;5091391;28;20032;-67
2022/01/18 10:08:01;;;;;;;4.45;3.28;;;;;;;9.44;36.95;91528.28;5092241;28;20043;-67
2022/01/18 10:10:39;;;;;;;8.00;4.72;;;;;;;11.96;32.59;91512.53;5092196;28;20024;-67
2022/01/18 10:13:06;;;;;;;7.70;5.07;;;;;;;12.92;31.75;91510.44;5091551;28;20050;-67
2022/01/18 10:15:32;;;;;;;4.68;2.58;;;;;;;12.03;32.88;91517.47;5091826;28;20032;-67
2022/01/18 10:18:09;;;;;;;2.50;2.30;;;;;;;10.24;34.63;91522.06;5091768;28;20026;-67
2022/01/18 10:20:51;;;;;;;10.02;5.25;;;;;;;10.01;36.08;91525.59;5091348;28;20394;-66
2022/01/18 10:23:24;;;;;;;6.53;3.97;;;;;;;8.50;38.51;91506.06;5091750;28;20046;-67
2022/01/18 10:25:50;;;;;;;3.97;3.20;;;;;;;8.12;38.33;91521.75;5091616;28;20040;-67
2022/01/18 10:28:45;;;;;;;6.80;5.18;;;;;;;9.39;37.45;91516.94;5091692;28;20039;-67
2022/01/18 10:37:14;;;;;;;2.33;2.13;;;;;;;9.26;37.25;91503.28;5088475;28;20044;-67
2022/01/18 10:39:41;;;;;;;3.60;3.03;;;;;;;7.55;39.17;91507.38;5091466;28;20103;-66
2022/01/18 10:42:17;;;;;;;3.33;2.88;;;;;;;7.47;39.60;91508.75;5091395;28;20024;-66
2022/01/18 10:44:48;;;;;;;4.43;2.85;;;;;;;7.58;38.46;91521.94;5091219;28;20397;-66
2022/01/18 10:47:16;;;;;;;4.75;2.22;;;;;;;8.39;39.02;91531.91;5091028;28;20056;-68
2022/01/18 10:49:47;;;;;;;3.90;3.25;;;;;;;7.11;40.32;91523.28;5091031;28;20024;-67
2022/01/18 10:52:18;;;;;;;3.33;2.75;;;;;;;7.09;39.51;91526.16;5091186;28;20543;-66
2022/01/18 10:54:45;;;;;;;4.97;2.80;;;;;;;8.00;38.22;91524.78;5091138;28;20024;-65
2022/01/18 10:57:13;;;;;;;2.80;2.50;;;;;;;8.67;37.67;91501.88;5091209;28;20030;-66
2022/01/18 10:59:41;;;;;;;6.88;3.33;;;;;;;8.47;37.09;91525.97;5091431;28;20051;-66
2022/01/18 11:02:14;;;;;;;5.03;3.30;;;;;;;7.31;39.00;91509.91;5091126;28;20086;-66
2022/01/18 11:04:51;;;;;;;7.35;3.00;;;;;;;7.58;38.82;91506.06;5090578;28;20050;-66
2022/01/18 11:07:20;;;;;;;3.42;3.13;;;;;;;8.57;38.44;91509.97;5091075;28;20071;-65
2022/01/18 11:09:46;;;;;;;3.35;2.80;;;;;;;7.84;39.93;91510.06;5091102;28;20035;-65
2022/01/18 11:12:12;;;;;;;5.25;3.08;;;;;;;7.64;40.54;91516.31;5090823;28;20590;-65
2022/01/18 11:14:45;;;;;;;7.07;4.28;;;;;;;9.23;36.85;91511.03;5090823;28;20053;-65
2022/01/18 11:17:22;;;;;;;5.00;2.90;;;;;;;9.18;37.52;91517.22;5090979;28;20028;-65
2022/01/18 11:19:49;;;;;;;4.25;3.33;;;;;;;7.45;41.18;91512.75;5090408;28;20067;-64
2022/01/18 11:22:16;;;;;;;3.78;2.85;;;;;;;6.09;42.37;91531.50;5090845;28;20059;-64
2022/01/18 11:24:44;;;;;;;15.93;13.63;;;;;;;5.87;43.59;91529.13;5090792;28;20081;-65
2022/01/18 11:27:13;;;;;;;5.15;3.30;;;;;;;7.37;41.11;91518.59;5090425;28;20037;-65
2022/01/18 11:29:43;;;;;;;3.38;2.55;;;;;;;7.07;41.61;91516.91;5090753;28;20106;-65
2022/01/18 11:32:09;;;;;;;4.25;2.47;;;;;;;8.07;39.46;91519.16;5090606;28;20058;-65
2022/01/18 11:34:49;;;;;;;6.70;3.67;;;;;;;7.85;40.17;91513.50;5090285;28;20028;-64
2022/01/18 11:37:42;;;;;;;9.35;6.55;;;;;;;7.74;41.02;91499.56;5090796;28;20409;-65
2022/01/18 11:40:10;;;;;;;6.57;3.60;;;;;;;8.29;39.80;91500.94;5089467;28;20036;-66
2022/01/18 11:42:49;;;;;;;4.88;3.20;;;;;;;9.23;38.34;91503.06;5091530;28;20049;-65
2022/01/18 11:45:24;;;;;;;5.95;3.05;;;;;;;9.63;37.78;91507.06;5090673;28;20060;-65
2022/01/18 11:48:15;;;;;;;5.32;2.92;;;;;;;10.37;36.58;91500.03;5090641;28;20028;-64
2022/01/18 11:51:01;;;;;;;6.32;2.88;;;;;;;9.57;36.95;91502.88;5075612;28;20050;-65
2022/01/18 11:53:38;;;;;;;5.78;3.22;;;;;;;9.67;36.77;91492.09;5090362;28;20051;-66
2022/01/18 11:56:04;;;;;;;3.92;2.53;;;;;;;7.97;38.85;91496.19;5074541;28;20406;-64
2022/01/18 11:58:30;;;;;;;4.70;2.80;;;;;;;6.69;40.75;91484.06;5070757;28;20036;-66
2022/01/18 12:00:59;;;;;;;6.50;3.85;;;;;;;6.81;41.31;91485.31;5073747;28;20028;-65
2022/01/18 12:03:32;;;;;;;2.88;2.42;;;;;;;6.20;42.39;91488.16;5074034;28;20469;-67
2022/01/18 12:06:01;;;;;;;30.10;16.52;;;;;;;6.63;43.93;91485.94;5073509;28;20519;-65
2022/01/18 12:08:39;;;;;;;6.38;4.13;;;;;;;8.15;40.06;91472.72;5073756;28;20028;-67
2022/01/18 12:11:10;;;;;;;4.95;3.20;;;;;;;7.35;41.05;91476.53;5073828;28;20033;-67
2022/01/18 12:13:42;;;;;;;12.18;3.90;;;;;;;7.31;39.99;91478.16;5073530;28;20583;-67
2022/01/18 12:16:20;;;;;;;8.48;4.25;;;;;;;8.23;39.00;91477.41;5073805;28;20528;-66
2022/01/18 12:18:55;;;;;;;10.65;5.45;;;;;;;8.33;40.16;91480.75;5084857;28;20032;-67
2022/01/18 12:21:27;;;;;;;4.22;3.15;;;;;;;7.96;40.15;91481.38;5073892;28;20040;-68
2022/01/18 12:23:56;;;;;;;4.05;2.95;;;;;;;6.78;42.10;91479.75;5073913;28;20029;-67
2022/01/18 12:29:22;;;;;;;5.30;2.85;;;;;;;6.12;43.78;91487.91;5073795;28;20455;-65
2022/01/18 12:36:55;;;;;;;5.00;4.03;;;;;;;6.53;45.28;91504.47;5073883;28;20025;-65
2022/01/18 12:39:22;;;;;;;4.97;2.88;;;;;;;6.14;45.29;91514.84;5073359;28;20516;-66
2022/01/18 12:41:55;;;;;;;6.05;3.60;;;;;;;6.23;44.55;91514.06;5073185;28;20036;-67
2022/01/18 12:44:21;;;;;;;6.65;3.80;;;;;;;6.46;44.45;91507.38;5072643;28;20038;-66
2022/01/18 12:46:58;;;;;;;5.00;3.53;;;;;;;4.24;48.36;91514.72;5073131;28;20028;-66
2022/01/18 12:49:24;;;;;;;8.43;3.88;;;;;;;4.25;49.27;91507.63;5073034;28;20106;-65
2022/01/18 12:51:58;;;;;;;4.82;3.13;;;;;;;5.25;48.04;91514.31;5089190;28;20081;-65
2022/01/18 12:54:37;;;;;;;4.35;2.92;;;;;;;4.17;48.56;91509.72;5093071;28;20055;-65
2022/01/18 12:57:17;;;;;;;4.50;2.80;;;;;;;4.54;47.73;91508.81;5093247;28;20028;-65
2022/01/18 13:00:14;;;;;;;5.47;3.10;;;;;;;4.57;48.20;91499.59;5093155;28;20066;-66
2022/01/18 13:02:46;;;;;;;4.32;3.03;;;;;;;4.04;48.90;91504.09;5077094;28;20040;-66
2022/01/18 13:05:12;;;;;;;6.18;3.35;;;;;;;4.90;48.27;91501.84;5091007;28;20028;-65
2022/01/18 13:07:53;;;;;;;4.82;2.90;;;;;;;4.85;48.05;91504.44;5085628;28;20482;-66
2022/01/18 13:10:19;;;;;;;7.07;2.70;;;;;;;4.95;47.54;91504.50;5072496;28;20037;-66
2022/01/18 13:12:46;;;;;;;6.57;3.20;;;;;;;4.48;48.75;91500.13;5083671;28;20052;-65
2022/01/18 13:15:22;;;;;;;3.72;2.67;;;;;;;4.44;48.93;91493.78;5092702;28;20483;-66
2022/01/18 13:23:50;;;;;;;4.50;2.60;;;;;;;4.06;48.41;91504.63;5092611;28;20043;-66
2022/01/18 13:26:15;;;;;;;4.00;2.53;;;;;;;3.73;48.91;91514.44;5091886;28;20139;-65
2022/01/18 13:28:41;;;;;;;6.90;3.97;;;;;;;3.19;49.85;91508.47;5092550;28;20524;-65